Pagrindinis puslapis
METAR-TAF:

METAR-TAF

Oro uostai :

Trondheimas, Norvegija

platuma: 63-28N, ilguma: 010-56E, Aukštis: 1 m

Dabartinis oras

Ataskaita buvo paskelbta 23 minutes, ne 15:50 UTC
Vėjas 6 kt iš Pietryčių
Temperatūra 16°C
Drėgmė 63%
Slėgis 1016 hPa
Matomumas 10 km arba daugiau
nėra debesų žemiau 1500 m ir nėra kamuolinių lietaus debesų

METAR: ENVA 161550Z 14006KT CAVOK 16/09 Q1016 NOSIG RMK WIND 670FT 16014KT

Laikas: 18:13 (16:13 UTC)

Prognozė

Prognozė galioja nuo 16 metu 12 UTC su 17 metu 12 UTC
Vėjas 8 kt iš Vakarų
Matomumas 10 km arba daugiau
Mažai debesys ne aukštis 4000 ft
Išsisklaidę debesys ne aukštis 8000 ft
Tapsmas
nuo 16 metu 18 UTC su 16 metu 21 UTC
Vėjas 12 kt iš Pietryčių

TAF: ENVA 1612/1712 26008KT 9999 FEW040 SCT080 BECMG 1618/1621 14012KT

Orai ataskaitas ir orų prognozės (METAR, TAF).

turimą stotys yra geltonos ir raudonos taškus žemėlapyje.

Perkelti pele per norėdami pamatyti stoties vardą.

Tada spustelėkite, norėdami matyti oro stebėjimo ir prognozės.

Norėdami pakeisti žemėlapį: spustelėkite ant žalios mygtukų su juodo kryžiaus žemyn,; žalią mygtuką su brūkšneliu, jei norite nutolinti; arba žalių rodyklių gretimoms žemėlapius.


METAR-TAF: